Time;durP1;ratioP1;P1;durP2;ratioP2;P2;SDS_P1;SDS_P2;PMS_P1;PMS_P2;Temp;Humidity;BMP_temperature;BMP_pressure;BME280_temperature;BME280_humidity;BME280_pressure;Samples;Min_cycle;Max_cycle;Signal;HPM_P1;HPM_P2
2023/10/04 00:00:19;;;;;;;14.50;8.52;;;16.30;99.90;;;;;;4924471;29;20252;-83
2023/10/04 00:02:53;;;;;;;17.27;7.78;;;16.30;99.90;;;;;;4930918;29;20558;-83
2023/10/04 00:05:23;;;;;;;16.30;7.18;;;16.40;99.90;;;;;;4923647;29;20249;-83
2023/10/04 00:07:53;;;;;;;13.82;7.05;;;16.30;99.90;;;;;;4928220;29;20198;-83
2023/10/04 00:10:23;;;;;;;19.50;7.32;;;16.30;99.90;;;;;;4931112;29;20213;-83
2023/10/04 00:12:55;;;;;;;20.23;8.48;;;16.30;99.90;;;;;;4932128;29;20310;-82
2023/10/04 00:15:27;;;;;;;15.68;7.38;;;16.30;99.90;;;;;;4930561;29;20201;-82
2023/10/04 00:17:55;;;;;;;19.70;8.63;;;16.30;99.90;;;;;;4915202;29;20198;-82
2023/10/04 00:20:31;;;;;;;17.50;8.57;;;16.30;99.90;;;;;;4931366;29;20559;-82
2023/10/04 00:23:00;;;;;;;18.25;8.18;;;16.30;99.90;;;;;;4932148;29;20815;-83
2023/10/04 00:25:28;;;;;;;20.40;7.97;;;16.40;99.90;;;;;;4932214;29;20194;-82
2023/10/04 00:27:56;;;;;;;17.30;8.10;;;16.40;99.90;;;;;;4922713;29;20614;-82
2023/10/04 00:30:29;;;;;;;17.52;8.38;;;16.30;99.90;;;;;;4941753;28;20220;-83
2023/10/04 00:32:58;;;;;;;23.08;8.27;;;16.30;99.90;;;;;;4952932;28;20211;-83
2023/10/04 00:35:27;;;;;;;17.00;7.55;;;16.30;99.90;;;;;;4970542;28;20214;-83
2023/10/04 00:37:59;;;;;;;20.33;9.02;;;16.40;99.90;;;;;;4968398;28;20192;-83
2023/10/04 00:40:32;;;;;;;16.75;8.07;;;16.30;99.90;;;;;;4970636;28;20187;-82
2023/10/04 00:43:01;;;;;;;21.27;9.27;;;16.40;99.90;;;;;;4950761;28;20265;-82
2023/10/04 00:45:29;;;;;;;19.02;8.40;;;16.40;99.90;;;;;;4952638;28;20208;-83
2023/10/04 00:47:57;;;;;;;18.23;8.55;;;16.40;99.90;;;;;;4970084;28;20283;-83
2023/10/04 00:50:32;;;;;;;20.40;9.07;;;16.40;99.90;;;;;;4967297;28;20188;-83
2023/10/04 00:53:03;;;;;;;24.02;9.75;;;16.40;99.90;;;;;;4944516;28;20621;-83
2023/10/04 00:55:43;;;;;;;18.80;7.72;;;16.40;99.90;;;;;;4952488;28;20295;-83
2023/10/04 00:58:17;;;;;;;17.27;8.32;;;16.40;99.90;;;;;;4960608;28;20199;-83
2023/10/04 01:00:47;;;;;;;18.13;8.02;;;16.40;99.90;;;;;;4952404;28;20191;-84
2023/10/04 01:03:15;;;;;;;19.95;7.93;;;16.40;99.90;;;;;;4961579;28;20216;-83
2023/10/04 01:05:47;;;;;;;17.48;7.85;;;16.40;99.90;;;;;;4969224;28;20266;-83
2023/10/04 01:08:16;;;;;;;16.02;7.30;;;16.40;99.90;;;;;;4952973;28;20207;-83
2023/10/04 01:10:45;;;;;;;23.73;9.05;;;16.50;99.90;;;;;;4935974;28;20619;-82
2023/10/04 01:13:17;;;;;;;18.05;7.15;;;16.40;99.90;;;;;;4969978;28;20788;-82
2023/10/04 01:15:45;;;;;;;16.27;6.93;;;16.40;99.90;;;;;;4965895;28;20207;-83
2023/10/04 01:18:16;;;;;;;15.32;5.47;;;16.40;99.90;;;;;;4946388;28;20753;-83
2023/10/04 01:20:45;;;;;;;13.63;5.55;;;16.40;99.90;;;;;;4954238;28;20206;-83
2023/10/04 01:23:14;;;;;;;13.02;4.50;;;16.40;99.90;;;;;;4952379;28;20195;-83
2023/10/04 01:25:44;;;;;;;11.18;4.38;;;16.30;99.90;;;;;;4966268;28;20408;-82
2023/10/04 01:28:16;;;;;;;10.20;3.45;;;16.30;99.90;;;;;;4961578;28;20188;-83
2023/10/04 01:30:46;;;;;;;8.68;3.08;;;16.20;99.90;;;;;;4952287;28;20310;-84
2023/10/04 01:33:21;;;;;;;6.03;2.63;;;16.20;99.90;;;;;;4935214;28;20192;-84
2023/10/04 01:35:51;;;;;;;11.88;2.90;;;16.10;99.90;;;;;;4952340;28;20238;-84
2023/10/04 01:38:24;;;;;;;7.05;1.73;;;16.10;99.90;;;;;;4951758;28;20219;-84
2023/10/04 01:40:54;;;;;;;7.18;2.10;;;16.10;99.90;;;;;;4949785;28;20191;-83
2023/10/04 01:43:26;;;;;;;8.60;1.95;;;16.00;99.90;;;;;;4969461;28;20195;-83
2023/10/04 01:45:57;;;;;;;12.35;2.55;;;16.00;99.90;;;;;;4956990;28;20235;-84
2023/10/04 01:48:36;;;;;;;8.82;2.20;;;15.90;99.90;;;;;;4952080;28;20220;-84
2023/10/04 01:51:06;;;;;;;13.95;2.55;;;15.90;99.90;;;;;;4952324;28;20734;-84
2023/10/04 01:53:34;;;;;;;9.40;2.13;;;15.90;99.90;;;;;;4952443;28;20290;-85
2023/10/04 01:56:03;;;;;;;6.45;1.98;;;15.90;99.90;;;;;;4969310;28;20204;-84
2023/10/04 01:58:31;;;;;;;10.13;2.30;;;15.80;99.90;;;;;;4958762;28;20196;-83
2023/10/04 02:01:01;;;;;;;7.78;2.08;;;15.80;99.90;;;;;;4952538;28;20184;-83
2023/10/04 02:03:29;;;;;;;7.93;1.70;;;15.70;99.90;;;;;;4948778;29;20201;-83
2023/10/04 02:05:57;;;;;;;8.88;1.98;;;15.60;99.90;;;;;;4968120;28;20196;-84
2023/10/04 02:08:27;;;;;;;4.70;1.52;;;15.60;99.90;;;;;;4969450;28;20203;-84
2023/10/04 02:10:57;;;;;;;10.48;1.95;;;15.50;99.90;;;;;;4969463;28;20555;-84
2023/10/04 02:13:28;;;;;;;4.90;1.65;;;15.50;99.90;;;;;;4933827;28;20197;-84
2023/10/04 02:15:57;;;;;;;9.48;1.48;;;15.50;99.90;;;;;;4945031;28;20290;-83
2023/10/04 02:18:24;;;;;;;7.53;1.98;;;15.40;99.90;;;;;;4969163;28;20188;-84
2023/10/04 02:20:53;;;;;;;8.48;1.92;;;15.40;99.90;;;;;;4952354;28;20259;-84
2023/10/04 02:23:21;;;;;;;3.75;1.17;;;15.40;99.90;;;;;;4969250;28;20275;-84
2023/10/04 02:25:49;;;;;;;4.53;1.30;;;15.40;99.90;;;;;;4969140;28;20199;-84
2023/10/04 02:28:22;;;;;;;5.43;1.10;;;15.40;99.90;;;;;;4971303;28;20196;-84
2023/10/04 02:30:55;;;;;;;7.68;1.20;;;15.30;99.90;;;;;;4973097;28;20840;-83
2023/10/04 02:33:33;;;;;;;2.33;0.95;;;15.20;99.90;;;;;;4955317;28;20215;-84
2023/10/04 02:36:01;;;;;;;7.85;1.20;;;15.10;99.90;;;;;;4936853;29;20243;-84
2023/10/04 02:38:34;;;;;;;5.57;0.85;;;15.10;99.90;;;;;;4953855;28;20196;-84
2023/10/04 02:41:05;;;;;;;6.13;1.33;;;15.10;99.90;;;;;;4972680;28;20200;-84
2023/10/04 02:43:33;;;;;;;4.05;1.05;;;15.10;99.90;;;;;;4964248;28;20212;-84
2023/10/04 02:46:01;;;;;;;4.75;1.00;;;15.00;99.90;;;;;;4953970;28;20207;-85
2023/10/04 02:48:31;;;;;;;4.90;0.90;;;15.00;99.90;;;;;;4951613;29;20291;-84
2023/10/04 02:50:59;;;;;;;1.15;0.50;;;15.00;99.90;;;;;;4968387;28;20227;-84
2023/10/04 02:53:28;;;;;;;2.97;0.75;;;14.90;99.90;;;;;;4972471;28;20250;-84
2023/10/04 02:55:57;;;;;;;5.45;1.25;;;14.90;99.90;;;;;;4972095;28;20268;-84
2023/10/04 02:58:34;;;;;;;3.35;0.98;;;14.90;99.90;;;;;;4954254;28;20283;-83
2023/10/04 03:01:03;;;;;;;2.50;0.70;;;14.90;99.90;;;;;;4963811;28;20607;-83
2023/10/04 03:03:31;;;;;;;4.30;0.80;;;14.90;99.90;;;;;;4970482;28;20234;-83
2023/10/04 03:06:04;;;;;;;7.22;0.80;;;14.80;99.90;;;;;;4947745;29;20241;-83
2023/10/04 03:08:33;;;;;;;4.25;0.98;;;14.80;99.90;;;;;;4953579;28;20219;-82
2023/10/04 03:11:03;;;;;;;8.77;1.25;;;14.80;99.90;;;;;;4954267;28;20241;-83
2023/10/04 03:13:34;;;;;;;2.92;0.80;;;14.80;99.90;;;;;;4939102;28;20639;-83
2023/10/04 03:16:04;;;;;;;5.43;0.80;;;14.80;99.90;;;;;;4952027;28;20255;-83
2023/10/04 03:18:33;;;;;;;2.15;0.63;;;14.80;99.90;;;;;;4971972;28;20188;-83
2023/10/04 03:23:40;;;;;;;7.93;1.05;;;14.70;99.90;;;;;;4954512;28;20556;-83
2023/10/04 03:26:14;;;;;;;4.28;0.60;;;14.70;99.90;;;;;;4936524;28;20203;-83
2023/10/04 03:28:47;;;;;;;3.45;0.90;;;14.70;99.90;;;;;;4936810;28;20223;-83
2023/10/04 03:31:16;;;;;;;3.65;0.73;;;14.70;99.90;;;;;;4954265;28;20756;-83
2023/10/04 03:33:49;;;;;;;4.13;0.88;;;14.70;99.90;;;;;;4954322;28;20227;-83
2023/10/04 03:36:21;;;;;;;3.70;0.70;;;14.60;99.90;;;;;;4953910;28;20230;-84
2023/10/04 03:38:57;;;;;;;7.57;0.90;;;14.60;99.90;;;;;;4950429;28;20203;-82
2023/10/04 03:41:25;;;;;;;4.88;0.80;;;14.40;99.90;;;;;;4954168;28;20200;-82
2023/10/04 03:43:57;;;;;;;4.18;0.93;;;14.20;99.90;;;;;;4938788;28;20198;-83
2023/10/04 03:46:26;;;;;;;5.53;0.60;;;14.10;99.90;;;;;;4969768;28;20203;-83
2023/10/04 03:48:58;;;;;;;1.85;0.40;;;13.90;99.90;;;;;;4954289;28;20195;-83
2023/10/04 03:51:29;;;;;;;2.17;0.57;;;13.80;99.90;;;;;;4937920;28;20196;-83
2023/10/04 03:54:05;;;;;;;1.55;0.50;;;13.60;99.90;;;;;;4952679;28;20255;-83
2023/10/04 03:56:35;;;;;;;2.28;0.55;;;13.40;99.90;;;;;;4953238;28;20475;-83
2023/10/04 03:59:03;;;;;;;1.40;0.35;;;13.40;99.90;;;;;;4936797;28;20197;-83
2023/10/04 04:01:32;;;;;;;0.88;0.38;;;13.20;99.90;;;;;;4971096;28;20188;-83
2023/10/04 04:04:03;;;;;;;0.73;0.30;;;13.10;99.90;;;;;;4953135;28;20198;-83
2023/10/04 04:06:31;;;;;;;0.40;0.40;;;13.10;99.90;;;;;;4954058;28;20192;-83
2023/10/04 04:09:04;;;;;;;0.52;0.30;;;13.00;99.90;;;;;;4953714;28;20314;-84
2023/10/04 04:11:32;;;;;;;0.80;0.40;;;13.00;99.90;;;;;;4954042;28;20562;-83
2023/10/04 04:14:00;;;;;;;0.68;0.43;;;13.00;99.90;;;;;;4966689;28;20211;-83
2023/10/04 04:16:28;;;;;;;1.35;0.30;;;13.00;99.90;;;;;;4951702;28;20215;-83
2023/10/04 04:18:55;;;;;;;3.53;0.47;;;13.10;99.90;;;;;;4955361;28;20938;-83
2023/10/04 04:21:24;;;;;;;1.65;0.30;;;13.00;99.90;;;;;;4953385;28;20203;-82
2023/10/04 04:23:53;;;;;;;0.50;0.28;;;13.00;99.90;;;;;;4953034;28;20196;-82
2023/10/04 04:26:23;;;;;;;3.28;0.30;;;12.90;99.90;;;;;;4966595;28;20299;-82
2023/10/04 04:28:52;;;;;;;0.43;0.20;;;12.80;99.90;;;;;;4953182;28;20192;-82
2023/10/04 04:31:20;;;;;;;1.10;0.22;;;12.50;99.90;;;;;;4953293;28;20583;-83
2023/10/04 04:33:48;;;;;;;4.70;0.47;;;12.60;99.90;;;;;;4952851;28;20226;-82
2023/10/04 04:36:34;;;;;;;3.03;0.25;;;12.30;99.90;;;;;;4953032;28;20257;-82
2023/10/04 04:39:08;;;;;;;0.90;0.40;;;12.40;99.90;;;;;;4950793;28;20256;-83
2023/10/04 04:41:38;;;;;;;3.15;0.47;;;12.20;99.90;;;;;;4954952;28;20597;-83
2023/10/04 04:44:08;;;;;;;3.15;0.50;;;12.00;99.90;;;;;;4966152;28;20180;-82
2023/10/04 04:46:39;;;;;;;1.05;0.35;;;11.90;99.90;;;;;;4945682;28;20199;-83
2023/10/04 04:49:07;;;;;;;1.95;0.50;;;12.10;99.90;;;;;;4951819;28;20292;-83
2023/10/04 04:51:35;;;;;;;1.10;0.43;;;12.00;99.90;;;;;;4953256;28;20840;-83
2023/10/04 04:54:03;;;;;;;2.17;0.52;;;11.90;99.90;;;;;;4950798;29;20686;-83
2023/10/04 04:56:32;;;;;;;0.70;0.45;;;11.80;99.90;;;;;;4939085;28;20223;-83
2023/10/04 04:59:07;;;;;;;1.02;0.43;;;11.80;99.90;;;;;;4952961;28;20199;-83
2023/10/04 05:01:40;;;;;;;1.40;0.52;;;11.80;99.90;;;;;;4932861;28;20616;-83
2023/10/04 05:04:09;;;;;;;4.70;0.80;;;11.70;99.90;;;;;;4951918;28;20224;-82
2023/10/04 05:06:38;;;;;;;2.53;0.75;;;11.60;99.90;;;;;;4970299;28;20851;-83
2023/10/04 05:09:06;;;;;;;4.75;0.68;;;11.50;99.90;;;;;;4953056;28;20307;-83
2023/10/04 05:11:36;;;;;;;4.68;0.90;;;11.70;99.90;;;;;;4970856;28;20193;-83
2023/10/04 05:14:08;;;;;;;4.55;1.10;;;11.60;99.90;;;;;;4970393;28;20174;-84
2023/10/04 05:16:37;;;;;;;3.92;0.95;;;11.60;99.90;;;;;;4970812;28;20192;-86
2023/10/04 05:19:08;;;;;;;19.63;1.55;;;11.60;99.90;;;;;;4971968;28;20212;-84
2023/10/04 05:21:36;;;;;;;8.40;1.00;;;11.70;99.90;;;;;;4970497;28;20199;-84
2023/10/04 05:24:05;;;;;;;5.90;1.55;;;11.50;99.90;;;;;;4970888;28;20187;-84
2023/10/04 05:26:35;;;;;;;5.30;1.25;;;11.30;99.90;;;;;;4970216;28;20207;-83
2023/10/04 05:29:03;;;;;;;5.18;1.35;;;11.20;99.90;;;;;;4968556;28;20191;-83
2023/10/04 05:31:31;;;;;;;5.82;1.50;;;11.30;99.90;;;;;;4968450;28;20234;-83
2023/10/04 05:33:59;;;;;;;9.05;1.50;;;11.20;99.90;;;;;;4953110;28;20572;-84
2023/10/04 05:36:27;;;;;;;5.75;1.40;;;11.30;99.90;;;;;;4970184;28;20223;-83
2023/10/04 05:38:55;;;;;;;5.00;1.67;;;11.20;99.90;;;;;;4966362;28;20207;-83
2023/10/04 05:41:25;;;;;;;10.98;2.00;;;11.20;99.90;;;;;;4969683;28;20199;-83
2023/10/04 05:43:52;;;;;;;7.28;2.28;;;11.20;99.90;;;;;;4970015;28;20206;-84
2023/10/04 05:46:20;;;;;;;4.97;1.55;;;11.20;99.90;;;;;;4952421;28;20647;-84
2023/10/04 05:48:48;;;;;;;8.38;2.10;;;11.30;99.90;;;;;;4969999;28;20198;-84
2023/10/04 05:51:17;;;;;;;11.50;2.22;;;11.20;99.90;;;;;;4952644;28;20271;-84
2023/10/04 05:53:47;;;;;;;6.90;2.08;;;11.20;99.90;;;;;;4961724;28;20772;-84
2023/10/04 05:56:17;;;;;;;9.25;1.85;;;11.20;99.90;;;;;;4953013;28;20270;-82
2023/10/04 05:58:46;;;;;;;5.05;1.60;;;11.10;99.90;;;;;;4952827;28;20335;-83
2023/10/04 06:01:17;;;;;;;11.70;1.92;;;11.10;99.90;;;;;;4952644;28;20679;-82
2023/10/04 06:03:45;;;;;;;10.35;2.30;;;10.90;99.90;;;;;;4972757;28;20290;-82
2023/10/04 06:06:13;;;;;;;8.35;1.80;;;11.00;99.90;;;;;;4956272;28;20242;-84
2023/10/04 06:08:40;;;;;;;6.47;1.83;;;11.00;99.90;;;;;;4969306;28;20200;-85
2023/10/04 06:11:08;;;;;;;6.45;1.77;;;11.00;99.90;;;;;;4973439;28;20199;-85
2023/10/04 06:13:35;;;;;;;4.93;1.60;;;11.00;99.90;;;;;;4973527;28;20608;-85
2023/10/04 06:16:04;;;;;;;4.57;1.67;;;11.00;99.90;;;;;;4974004;28;20200;-85
2023/10/04 06:18:32;;;;;;;6.85;1.80;;;11.10;99.90;;;;;;4952852;28;20213;-85
2023/10/04 06:20:59;;;;;;;7.75;2.03;;;11.00;99.90;;;;;;4948025;28;20274;-86
2023/10/04 06:23:31;;;;;;;6.35;1.85;;;11.00;99.90;;;;;;4954360;28;20188;-85
2023/10/04 06:25:59;;;;;;;6.60;1.83;;;11.00;99.90;;;;;;4955644;28;20188;-85
2023/10/04 06:28:28;;;;;;;6.47;1.50;;;11.00;99.90;;;;;;4954609;28;20197;-85
2023/10/04 06:30:56;;;;;;;5.85;1.85;;;11.00;99.90;;;;;;4940053;28;20730;-84
2023/10/04 06:33:25;;;;;;;7.68;1.83;;;11.00;99.90;;;;;;4955622;28;20227;-85
2023/10/04 06:35:52;;;;;;;7.80;1.67;;;10.90;99.90;;;;;;4956559;28;20671;-85
2023/10/04 06:38:24;;;;;;;5.95;1.77;;;10.90;99.90;;;;;;4955915;28;20290;-85
2023/10/04 06:40:52;;;;;;;6.75;1.67;;;10.90;99.90;;;;;;4954673;28;20190;-84
2023/10/04 06:43:19;;;;;;;6.07;2.00;;;10.90;99.90;;;;;;4973034;28;20187;-85
2023/10/04 06:45:47;;;;;;;7.35;1.60;;;10.90;99.90;;;;;;4944412;28;20250;-84
2023/10/04 06:48:14;;;;;;;7.35;2.10;;;11.00;99.90;;;;;;4955680;28;20200;-84
2023/10/04 06:50:44;;;;;;;8.95;2.05;;;11.00;99.90;;;;;;4952490;29;20263;-85
2023/10/04 06:53:12;;;;;;;7.70;2.05;;;11.00;99.90;;;;;;4953867;29;20614;-85
2023/10/04 06:55:41;;;;;;;11.13;2.58;;;11.00;99.90;;;;;;4953827;29;20288;-85
2023/10/04 06:58:12;;;;;;;7.18;1.95;;;10.90;99.90;;;;;;4936465;29;20223;-85
2023/10/04 07:00:40;;;;;;;6.63;1.98;;;10.90;99.90;;;;;;4924283;28;20208;-84
2023/10/04 07:03:10;;;;;;;11.90;2.25;;;10.90;99.90;;;;;;4970224;28;20192;-85
2023/10/04 07:05:40;;;;;;;8.23;1.95;;;10.90;99.90;;;;;;4952843;29;20553;-84
2023/10/04 07:08:12;;;;;;;5.85;1.75;;;11.00;99.90;;;;;;4954007;29;20302;-84
2023/10/04 07:10:41;;;;;;;4.57;1.67;;;11.00;99.90;;;;;;4936585;29;20271;-85
2023/10/04 07:13:09;;;;;;;3.75;1.45;;;11.00;99.90;;;;;;4935651;29;20702;-85
2023/10/04 07:15:41;;;;;;;8.15;2.10;;;10.90;99.90;;;;;;4935603;29;20574;-84
2023/10/04 07:18:11;;;;;;;9.25;2.13;;;10.90;99.90;;;;;;4953535;29;20200;-84
2023/10/04 07:20:41;;;;;;;6.35;2.28;;;11.00;99.90;;;;;;4936595;29;20892;-85
2023/10/04 07:23:10;;;;;;;8.95;1.90;;;10.90;99.90;;;;;;4953774;29;20208;-85
2023/10/04 07:25:44;;;;;;;10.90;2.47;;;10.90;99.90;;;;;;4953222;29;20204;-85
2023/10/04 07:28:12;;;;;;;8.50;1.88;;;11.00;99.90;;;;;;4936064;29;20542;-85
2023/10/04 07:30:40;;;;;;;9.23;2.13;;;11.00;99.90;;;;;;4928258;29;20580;-83
2023/10/04 07:33:08;;;;;;;7.45;1.67;;;11.00;99.90;;;;;;4915089;29;20198;-85
2023/10/04 07:35:37;;;;;;;5.75;1.83;;;11.00;99.90;;;;;;4897956;29;20766;-85
2023/10/04 07:38:05;;;;;;;5.70;1.50;;;11.00;99.90;;;;;;4914977;29;20316;-84
2023/10/04 07:40:33;;;;;;;9.57;1.67;;;11.10;99.90;;;;;;4915218;29;20190;-85
2023/10/04 07:43:01;;;;;;;9.48;1.77;;;11.10;99.90;;;;;;4915401;29;20186;-86
2023/10/04 07:45:30;;;;;;;8.63;2.22;;;11.10;99.90;;;;;;4898094;29;20294;-85
2023/10/04 07:48:01;;;;;;;8.32;1.65;;;11.10;99.90;;;;;;4913476;29;20190;-84
2023/10/04 07:50:29;;;;;;;4.15;1.80;;;11.10;99.90;;;;;;4928460;29;20200;-85
2023/10/04 07:53:04;;;;;;;7.15;1.80;;;11.20;99.90;;;;;;4932142;29;20289;-85
2023/10/04 07:55:33;;;;;;;3.42;1.30;;;11.20;99.90;;;;;;4933661;29;20185;-85
2023/10/04 07:58:04;;;;;;;7.05;1.77;;;11.20;99.90;;;;;;4933631;29;20209;-85
2023/10/04 08:00:37;;;;;;;4.55;1.60;;;11.20;99.90;;;;;;4932700;29;20637;-85
2023/10/04 08:03:06;;;;;;;6.55;1.95;;;11.20;99.90;;;;;;4934284;29;20195;-83
2023/10/04 08:05:35;;;;;;;9.85;1.88;;;11.30;99.90;;;;;;4933550;29;20269;-85
2023/10/04 08:08:05;;;;;;;6.70;1.77;;;11.40;99.90;;;;;;4931944;29;20228;-85
2023/10/04 08:10:36;;;;;;;6.15;1.70;;;11.50;99.90;;;;;;4947949;29;20238;-84
2023/10/04 08:13:04;;;;;;;5.47;1.80;;;11.70;99.90;;;;;;4933315;29;20189;-84
2023/10/04 08:15:37;;;;;;;11.02;1.77;;;11.70;99.90;;;;;;4933257;29;20189;-84
2023/10/04 08:18:06;;;;;;;5.55;1.80;;;11.50;99.90;;;;;;4931768;29;20304;-85
2023/10/04 08:20:36;;;;;;;4.30;1.52;;;11.50;99.90;;;;;;4933624;29;20288;-85
2023/10/04 08:23:04;;;;;;;8.82;1.90;;;11.30;99.90;;;;;;4933087;29;20174;-84
2023/10/04 08:25:34;;;;;;;4.38;1.52;;;11.20;99.90;;;;;;4932552;29;20672;-85
2023/10/04 08:28:05;;;;;;;5.47;1.40;;;11.10;99.90;;;;;;4932975;29;20240;-84
2023/10/04 08:30:32;;;;;;;6.88;1.75;;;11.20;99.90;;;;;;4947201;28;20235;-84
2023/10/04 08:33:00;;;;;;;5.30;1.42;;;11.30;99.90;;;;;;4931628;29;20185;-83
2023/10/04 08:35:28;;;;;;;8.07;1.45;;;11.10;99.90;;;;;;4932861;29;20193;-83
2023/10/04 08:38:03;;;;;;;7.97;1.40;;;10.90;99.90;;;;;;4931264;29;20861;-83
2023/10/04 08:40:34;;;;;;;5.85;1.40;;;10.90;99.90;;;;;;4932890;29;20256;-84
2023/10/04 08:43:04;;;;;;;7.55;1.55;;;10.90;99.90;;;;;;4947345;29;20185;-84
2023/10/04 08:45:34;;;;;;;5.50;1.50;;;11.00;99.90;;;;;;4932743;29;20272;-84
2023/10/04 08:48:03;;;;;;;5.05;1.67;;;10.90;99.90;;;;;;4947825;29;20173;-84
2023/10/04 08:50:36;;;;;;;4.32;1.45;;;10.90;99.90;;;;;;4932874;29;20199;-83
2023/10/04 08:53:37;;;;;;;3.85;1.27;;;10.80;99.90;;;;;;4932725;29;20180;-84
2023/10/04 08:56:16;;;;;;;4.97;1.30;;;10.90;99.90;;;;;;4947139;29;20188;-83
2023/10/04 08:58:46;;;;;;;5.15;1.38;;;11.00;99.90;;;;;;4932429;29;20193;-84
2023/10/04 09:01:20;;;;;;;8.00;1.50;;;11.00;99.90;;;;;;4940516;29;20213;-84
2023/10/04 09:03:50;;;;;;;4.60;1.70;;;11.10;99.90;;;;;;4932505;29;20179;-84
2023/10/04 09:06:18;;;;;;;6.47;1.70;;;11.20;99.90;;;;;;4932373;29;20189;-84
2023/10/04 09:08:46;;;;;;;4.47;1.40;;;11.20;99.90;;;;;;4931701;29;20205;-84
2023/10/04 09:11:15;;;;;;;12.02;1.38;;;11.20;99.90;;;;;;4915347;29;20197;-85
2023/10/04 09:13:48;;;;;;;9.77;1.98;;;11.20;99.90;;;;;;4931311;29;20185;-83
2023/10/04 09:16:20;;;;;;;5.25;1.73;;;11.10;99.90;;;;;;4930910;29;20217;-84
2023/10/04 09:18:48;;;;;;;7.80;2.10;;;11.00;99.90;;;;;;4932322;29;20197;-83
2023/10/04 09:21:16;;;;;;;7.55;1.45;;;10.90;99.90;;;;;;4930733;29;20295;-83
2023/10/04 09:23:44;;;;;;;9.15;2.17;;;10.90;99.90;;;;;;4931004;29;20186;-83
2023/10/04 09:26:16;;;;;;;7.80;1.70;;;11.00;99.90;;;;;;4932792;29;20192;-83
2023/10/04 09:28:46;;;;;;;11.25;2.28;;;10.90;99.90;;;;;;4930986;29;20200;-84
2023/10/04 09:31:13;;;;;;;6.75;1.98;;;11.00;99.90;;;;;;4946599;28;20237;-84
2023/10/04 09:33:43;;;;;;;5.25;1.83;;;11.10;99.90;;;;;;4930962;29;20212;-85
2023/10/04 09:36:10;;;;;;;8.45;1.75;;;11.20;99.90;;;;;;4946945;29;20284;-85
2023/10/04 09:38:39;;;;;;;7.75;2.63;;;11.40;99.90;;;;;;4933721;29;20219;-84
2023/10/04 09:41:10;;;;;;;7.47;1.80;;;11.60;99.90;;;;;;4934919;29;20197;-83
2023/10/04 09:43:40;;;;;;;6.80;1.80;;;11.70;99.90;;;;;;4936057;29;20166;-84
2023/10/04 09:46:12;;;;;;;8.82;1.48;;;11.90;99.90;;;;;;4935821;29;20273;-84
2023/10/04 09:48:43;;;;;;;5.10;1.70;;;12.00;99.90;;;;;;4936071;29;20188;-84
2023/10/04 09:51:13;;;;;;;7.68;1.98;;;12.00;99.90;;;;;;4950730;29;20196;-84
2023/10/04 09:53:42;;;;;;;6.93;1.83;;;12.10;99.90;;;;;;4935225;29;20197;-84
2023/10/04 09:56:13;;;;;;;5.47;1.63;;;12.30;99.90;;;;;;4950724;29;20212;-84
2023/10/04 09:58:51;;;;;;;9.65;1.88;;;12.20;99.90;;;;;;4935758;29;20193;-83
2023/10/04 10:01:19;;;;;;;6.38;1.80;;;12.20;99.90;;;;;;4934607;29;20201;-84
2023/10/04 10:04:16;;;;;;;9.82;1.50;;;12.20;99.90;;;;;;4935729;29;20185;-84
2023/10/04 10:07:09;;;;;;;5.70;1.30;;;12.40;99.90;;;;;;4934400;29;20716;-84
2023/10/04 10:10:01;;;;;;;5.95;1.33;;;12.40;99.90;;;;;;4936143;29;20169;-84
2023/10/04 10:12:38;;;;;;;5.72;1.60;;;12.40;99.90;;;;;;4935534;29;20200;-84
2023/10/04 10:15:07;;;;;;;9.07;1.90;;;12.60;99.90;;;;;;4933927;29;20235;-85
2023/10/04 10:17:35;;;;;;;5.65;1.60;;;12.70;99.90;;;;;;4933935;29;20677;-84
2023/10/04 10:20:05;;;;;;;7.78;1.67;;;12.90;99.90;;;;;;4933877;29;20197;-84
2023/10/04 10:22:33;;;;;;;8.73;1.50;;;12.90;99.90;;;;;;4949762;29;20272;-85
2023/10/04 10:25:03;;;;;;;9.80;1.60;;;13.10;99.90;;;;;;4935383;29;20200;-84
2023/10/04 10:27:31;;;;;;;5.30;1.30;;;13.30;99.90;;;;;;4918590;29;20669;-84
2023/10/04 10:30:02;;;;;;;6.38;1.55;;;13.10;99.90;;;;;;4936214;29;20225;-85
2023/10/04 10:32:30;;;;;;;6.40;1.50;;;13.20;99.90;;;;;;4972855;28;20223;-84
2023/10/04 10:35:05;;;;;;;6.00;1.38;;;13.30;99.90;;;;;;4940106;28;20215;-84
2023/10/04 10:37:35;;;;;;;7.63;1.48;;;13.30;99.90;;;;;;4955997;28;20180;-84
2023/10/04 10:40:07;;;;;;;5.57;1.38;;;13.40;99.90;;;;;;4973325;28;20198;-84
2023/10/04 10:43:10;;;;;;;7.55;1.60;;;13.30;99.90;;;;;;4955850;28;20211;-84
2023/10/04 10:45:37;;;;;;;5.88;1.50;;;13.00;99.90;;;;;;4973257;28;20183;-84
2023/10/04 10:48:10;;;;;;;4.65;1.60;;;13.00;99.90;;;;;;4955207;28;20295;-84
2023/10/04 10:50:41;;;;;;;11.65;1.70;;;12.90;99.90;;;;;;4973381;28;20632;-83
2023/10/04 10:53:14;;;;;;;4.95;1.30;;;12.80;99.90;;;;;;4956191;28;20251;-84
2023/10/04 10:55:41;;;;;;;7.00;1.40;;;12.70;99.90;;;;;;4955616;28;20266;-84
2023/10/04 10:58:10;;;;;;;4.13;1.33;;;12.80;99.90;;;;;;4973068;28;20208;-84
2023/10/04 11:00:38;;;;;;;4.93;1.50;;;13.10;99.90;;;;;;4955471;28;20208;-84
2023/10/04 11:03:09;;;;;;;5.30;1.67;;;13.20;99.90;;;;;;4971741;28;20809;-86
2023/10/04 11:05:38;;;;;;;6.55;1.65;;;13.50;99.90;;;;;;4973072;28;20258;-84
2023/10/04 11:08:08;;;;;;;3.97;1.60;;;13.60;99.90;;;;;;4973440;28;20192;-85
2023/10/04 11:10:38;;;;;;;8.23;1.85;;;13.40;99.90;;;;;;4973437;28;20254;-84
2023/10/04 11:13:08;;;;;;;3.65;1.60;;;13.30;99.90;;;;;;4973214;28;20184;-84
2023/10/04 11:15:36;;;;;;;7.93;1.95;;;13.40;99.90;;;;;;4971518;28;20256;-85
2023/10/04 11:18:06;;;;;;;10.77;1.63;;;13.60;99.90;;;;;;4971392;28;20250;-83
2023/10/04 11:20:37;;;;;;;6.80;1.40;;;13.40;99.90;;;;;;4955200;28;20243;-85
2023/10/04 11:23:06;;;;;;;7.15;1.65;;;13.50;99.90;;;;;;4939424;28;20188;-85
2023/10/04 11:25:33;;;;;;;9.18;1.73;;;13.60;99.90;;;;;;4972753;28;20180;-85
2023/10/04 11:28:00;;;;;;;5.80;1.25;;;13.90;99.90;;;;;;4972666;28;20191;-85
2023/10/04 11:30:33;;;;;;;5.25;1.52;;;14.00;99.90;;;;;;4955150;28;20250;-85
2023/10/04 11:33:01;;;;;;;6.60;1.75;;;14.10;99.90;;;;;;4957356;28;20196;-84
2023/10/04 11:35:33;;;;;;;8.15;1.77;;;13.80;99.90;;;;;;4942773;29;20217;-85
2023/10/04 11:38:05;;;;;;;3.53;1.33;;;13.50;99.90;;;;;;4950236;29;20300;-84
2023/10/04 11:40:34;;;;;;;5.32;1.30;;;13.30;99.90;;;;;;4953027;29;20165;-83
2023/10/04 11:43:08;;;;;;;4.65;1.35;;;13.20;99.90;;;;;;4952941;29;20184;-83
2023/10/04 11:45:36;;;;;;;3.40;1.20;;;12.90;99.90;;;;;;4935506;29;20317;-84
2023/10/04 11:48:07;;;;;;;9.18;1.60;;;12.70;99.90;;;;;;4941966;28;20188;-84
2023/10/04 11:50:49;;;;;;;5.20;1.13;;;12.50;99.90;;;;;;4946423;28;20207;-84
2023/10/04 11:53:32;;;;;;;6.45;1.33;;;12.40;99.90;;;;;;4954819;28;20290;-85
2023/10/04 11:56:06;;;;;;;4.65;1.23;;;12.60;99.90;;;;;;4941728;28;20266;-84
2023/10/04 11:58:50;;;;;;;7.55;1.30;;;12.90;99.90;;;;;;4954326;28;20210;-85
2023/10/04 12:01:19;;;;;;;8.55;1.70;;;12.90;99.90;;;;;;4960721;28;20279;-85
2023/10/04 12:03:50;;;;;;;8.93;1.35;;;12.70;99.90;;;;;;4947860;28;20192;-85
2023/10/04 12:06:27;;;;;;;8.32;1.42;;;12.60;99.90;;;;;;4952977;28;20193;-85
2023/10/04 12:08:57;;;;;;;7.60;1.35;;;12.90;99.90;;;;;;4952304;28;20255;-85
2023/10/04 12:11:26;;;;;;;4.93;1.48;;;13.10;99.90;;;;;;4968881;28;20202;-84
2023/10/04 12:13:57;;;;;;;6.70;1.73;;;13.30;99.90;;;;;;4954640;28;20196;-86
2023/10/04 12:16:25;;;;;;;5.78;1.20;;;13.60;99.90;;;;;;4971392;28;20247;-85
2023/10/04 12:18:53;;;;;;;10.88;1.67;;;13.70;99.90;;;;;;4971585;28;20864;-85
2023/10/04 12:21:20;;;;;;;6.18;2.05;;;13.90;99.90;;;;;;4964083;28;20195;-85
2023/10/04 12:23:48;;;;;;;4.80;1.50;;;13.80;99.90;;;;;;4954649;28;20208;-85
2023/10/04 12:26:20;;;;;;;5.13;1.35;;;13.80;99.90;;;;;;4953669;28;20222;-85
2023/10/04 12:28:49;;;;;;;7.55;1.40;;;13.60;99.90;;;;;;4953540;28;20199;-85
2023/10/04 12:31:16;;;;;;;6.93;1.85;;;13.40;99.90;;;;;;4962371;28;20255;-85
2023/10/04 12:33:46;;;;;;;10.80;1.80;;;13.20;99.90;;;;;;4937815;28;20239;-85
2023/10/04 12:36:13;;;;;;;7.55;1.73;;;13.20;99.90;;;;;;4961379;28;20199;-84
2023/10/04 12:38:41;;;;;;;7.05;1.55;;;13.20;99.90;;;;;;4953490;28;20207;-85
2023/10/04 12:41:09;;;;;;;8.32;1.75;;;13.10;99.90;;;;;;4971733;28;20192;-84
2023/10/04 12:43:36;;;;;;;7.55;1.25;;;13.10;99.90;;;;;;4953817;28;20214;-85
2023/10/04 12:46:04;;;;;;;9.20;2.10;;;13.20;99.90;;;;;;4943456;28;20203;-85
2023/10/04 12:48:32;;;;;;;9.20;1.52;;;13.30;99.90;;;;;;4970893;28;20628;-85
2023/10/04 12:51:00;;;;;;;18.13;1.65;;;13.20;99.90;;;;;;4953140;28;20195;-84
2023/10/04 12:53:28;;;;;;;4.78;1.10;;;13.00;99.90;;;;;;4953043;28;20680;-85
2023/10/04 12:55:55;;;;;;;5.40;1.40;;;13.10;99.90;;;;;;4958066;28;20195;-85
2023/10/04 12:58:23;;;;;;;8.57;1.45;;;12.90;99.90;;;;;;4953241;28;20188;-85
2023/10/04 13:00:50;;;;;;;7.97;1.60;;;12.90;99.90;;;;;;4950385;28;20191;-85
2023/10/04 13:03:19;;;;;;;9.73;1.95;;;12.90;99.90;;;;;;4939256;28;20220;-85